createdAt,value
2023-04-21T00:01:00.060Z,3.62
2023-04-21T00:02:02.394Z,3.70
2023-04-21T00:03:04.751Z,3.61
2023-04-21T00:04:07.234Z,3.57
2023-04-21T00:05:13.961Z,3.36
2023-04-21T00:06:22.376Z,3.31
2023-04-21T00:07:24.736Z,3.37
2023-04-21T00:08:26.999Z,3.35
2023-04-21T00:09:29.200Z,3.30
2023-04-21T00:10:31.407Z,3.27
2023-04-21T00:11:33.593Z,3.37
2023-04-21T00:12:36.223Z,3.38
2023-04-21T00:13:38.843Z,3.47
2023-04-21T00:14:41.081Z,3.48
2023-04-21T00:15:43.387Z,3.52
2023-04-21T00:16:46.160Z,3.51
2023-04-21T00:17:48.307Z,3.51
2023-04-21T00:18:50.510Z,3.44
2023-04-21T00:19:52.727Z,3.35
2023-04-21T00:20:55.185Z,3.28
2023-04-21T00:21:59.014Z,3.34
2023-04-21T00:23:01.367Z,3.41
2023-04-21T00:24:03.782Z,3.47
2023-04-21T00:25:06.840Z,3.52
2023-04-21T00:26:09.125Z,3.57
2023-04-21T00:27:13.276Z,3.62
2023-04-21T00:28:15.651Z,3.57
2023-04-21T00:29:18.170Z,3.64
2023-04-21T00:30:20.669Z,3.67
2023-04-21T00:31:22.960Z,3.65
2023-04-21T00:32:25.425Z,3.65
2023-04-21T00:33:27.643Z,3.69
2023-04-21T00:34:31.207Z,3.69
2023-04-21T00:35:33.507Z,3.67
2023-04-21T00:36:36.426Z,3.76
2023-04-21T00:37:38.833Z,3.78
2023-04-21T00:38:40.995Z,3.73
2023-04-21T00:39:44.432Z,3.75
2023-04-21T00:40:49.309Z,3.79
2023-04-21T00:41:51.530Z,3.73
2023-04-21T00:42:53.963Z,3.69
2023-04-21T00:44:07.057Z,3.64
2023-04-21T00:45:09.875Z,3.69
2023-04-21T00:46:12.203Z,3.69
2023-04-21T00:47:14.652Z,3.70
2023-04-21T00:48:17.667Z,3.68
2023-04-21T00:49:20.131Z,3.67
2023-04-21T00:50:24.384Z,3.66
2023-04-21T00:51:28.287Z,3.70
2023-04-21T00:52:31.098Z,3.71
2023-04-21T00:53:33.370Z,3.76
2023-04-21T00:54:36.236Z,3.76
2023-04-21T00:55:38.691Z,3.73
2023-04-21T00:56:41.037Z,3.82
2023-04-21T00:57:43.749Z,3.78
2023-04-21T00:58:46.197Z,3.78
2023-04-21T00:59:50.132Z,3.82
2023-04-21T01:00:53.554Z,3.83
2023-04-21T01:01:57.260Z,3.82
2023-04-21T01:03:01.591Z,3.85
2023-04-21T01:04:05.438Z,3.85
2023-04-21T01:05:09.056Z,3.88
2023-04-21T01:06:13.499Z,3.89
2023-04-21T01:07:15.797Z,3.98
2023-04-21T01:08:17.983Z,3.97
2023-04-21T01:09:21.405Z,3.96
2023-04-21T01:10:23.874Z,3.95
2023-04-21T01:11:27.305Z,3.98
2023-04-21T01:12:29.645Z,4.00
2023-04-21T01:13:31.796Z,4.01
2023-04-21T01:14:34.304Z,4.03
2023-04-21T01:15:36.453Z,3.99
2023-04-21T01:16:39.746Z,3.99
2023-04-21T01:17:42.925Z,4.01
2023-04-21T01:18:46.121Z,3.98
2023-04-21T01:19:49.087Z,3.99
2023-04-21T01:20:51.336Z,4.00
2023-04-21T01:22:01.959Z,4.03
2023-04-21T01:23:05.842Z,4.01
2023-04-21T01:24:08.085Z,3.78
2023-04-21T01:25:10.719Z,3.61
2023-04-21T01:26:12.935Z,3.47
2023-04-21T01:27:20.378Z,3.54
2023-04-21T01:28:23.671Z,3.65
2023-04-21T01:29:25.834Z,3.64
2023-04-21T01:30:29.434Z,3.72
2023-04-21T01:31:31.675Z,3.72
2023-04-21T01:32:34.108Z,3.69
2023-04-21T01:33:36.720Z,3.68
2023-04-21T01:34:40.794Z,3.60
2023-04-21T01:35:43.328Z,3.59
2023-04-21T01:36:45.639Z,3.52
2023-04-21T01:37:47.798Z,3.49
2023-04-21T01:38:49.969Z,3.50
2023-04-21T01:39:54.578Z,3.45
2023-04-21T01:40:56.875Z,3.53
2023-04-21T01:41:59.103Z,3.52
2023-04-21T01:43:01.447Z,3.63
2023-04-21T01:44:03.859Z,3.60
2023-04-21T01:45:07.515Z,3.57
2023-04-21T01:46:10.515Z,3.54
2023-04-21T01:47:13.850Z,3.58
2023-04-21T01:48:16.128Z,3.61
2023-04-21T01:49:18.849Z,3.55
2023-04-21T01:50:21.226Z,3.70
2023-04-21T01:51:23.500Z,3.62
2023-04-21T01:52:26.442Z,3.36
2023-04-21T01:53:29.952Z,3.47
2023-04-21T01:54:32.145Z,3.47
2023-04-21T01:55:34.394Z,3.25
2023-04-21T01:56:36.588Z,3.18
2023-04-21T01:57:38.819Z,3.30
2023-04-21T01:58:40.989Z,3.36
2023-04-21T01:59:43.739Z,3.22
2023-04-21T02:02:08.832Z,2.85
2023-04-21T02:03:14.056Z,2.64
2023-04-21T02:04:16.531Z,2.61
2023-04-21T02:05:19.085Z,2.60
2023-04-21T02:06:21.381Z,2.55
2023-04-21T02:07:23.668Z,2.54
2023-04-21T02:08:28.629Z,2.59
2023-04-21T02:09:31.615Z,2.71
2023-04-21T02:10:33.799Z,2.80
2023-04-21T02:11:36.003Z,2.86
2023-04-21T02:12:38.478Z,2.72
2023-04-21T02:13:40.694Z,2.65
2023-04-21T02:14:43.084Z,2.66
2023-04-21T02:15:45.335Z,2.73
2023-04-21T02:16:48.395Z,2.84
2023-04-21T02:17:50.689Z,2.93
2023-04-21T02:18:54.051Z,3.01
2023-04-21T02:19:56.346Z,2.98
2023-04-21T02:20:58.635Z,2.97
2023-04-21T02:22:02.294Z,2.92
2023-04-21T02:23:04.609Z,2.93
2023-04-21T02:24:06.960Z,2.90
2023-04-21T02:25:09.455Z,3.14
2023-04-21T02:26:11.645Z,3.30
2023-04-21T02:27:13.932Z,3.29
2023-04-21T02:28:16.226Z,3.30
2023-04-21T02:29:18.753Z,3.32
2023-04-21T02:30:21.211Z,3.42
2023-04-21T02:31:23.513Z,3.40
2023-04-21T02:32:26.454Z,3.48
2023-04-21T02:33:28.889Z,3.49
2023-04-21T02:34:31.307Z,3.55
2023-04-21T02:35:34.518Z,3.50
2023-04-21T02:36:36.720Z,3.56
2023-04-21T02:37:39.043Z,3.57
2023-04-21T02:38:41.225Z,3.53
2023-04-21T02:39:45.783Z,3.62
2023-04-21T02:40:47.999Z,3.60
2023-04-21T02:41:50.179Z,3.61
2023-04-21T02:42:52.449Z,3.71
2023-04-21T02:43:54.701Z,3.69
2023-04-21T02:44:57.743Z,3.73
2023-04-21T02:46:05.659Z,3.77
2023-04-21T02:47:09.370Z,3.70
2023-04-21T02:48:11.916Z,3.76
2023-04-21T02:49:14.419Z,3.78
2023-04-21T02:50:16.669Z,3.80
2023-04-21T02:51:18.960Z,3.87
2023-04-21T02:52:21.176Z,3.84
2023-04-21T02:53:23.565Z,3.86
2023-04-21T02:54:27.504Z,3.90
2023-04-21T02:55:30.039Z,3.91
2023-04-21T02:56:34.374Z,3.79
2023-04-21T02:57:36.718Z,3.82
2023-04-21T02:58:39.676Z,3.75
2023-04-21T02:59:41.824Z,3.73
2023-04-21T03:00:44.310Z,3.66
2023-04-21T03:01:47.865Z,3.63
2023-04-21T03:02:50.179Z,3.53
2023-04-21T03:03:52.703Z,3.61
2023-04-21T03:04:56.576Z,3.57
2023-04-21T03:06:01.293Z,3.61
2023-04-21T03:07:03.514Z,3.50
2023-04-21T03:08:05.815Z,3.36
2023-04-21T03:09:10.568Z,3.32
2023-04-21T03:10:12.883Z,3.32
2023-04-21T03:11:15.154Z,3.31
2023-04-21T03:12:17.373Z,3.31
2023-04-21T03:13:20.453Z,3.18
2023-04-21T03:14:25.320Z,3.26
2023-04-21T03:15:27.625Z,3.29
2023-04-21T03:16:29.831Z,3.28
2023-04-21T03:17:33.326Z,3.33
2023-04-21T03:18:36.377Z,3.36
2023-04-21T03:19:38.781Z,3.31
2023-04-21T03:20:41.035Z,3.27
2023-04-21T03:21:44.296Z,3.24
2023-04-21T03:22:46.478Z,3.25
2023-04-21T03:23:48.785Z,3.19
2023-04-21T03:24:50.924Z,3.12
2023-04-21T03:25:53.131Z,3.15
2023-04-21T03:26:56.933Z,3.11
2023-04-21T03:27:59.378Z,2.99
2023-04-21T03:29:01.825Z,3.00
2023-04-21T03:30:05.328Z,3.00
2023-04-21T03:31:07.518Z,2.99
2023-04-21T03:32:09.757Z,2.91
2023-04-21T03:33:12.382Z,2.83
2023-04-21T03:34:14.789Z,2.80
2023-04-21T03:35:17.508Z,2.76
2023-04-21T03:36:19.663Z,2.74
2023-04-21T03:37:21.955Z,2.70
2023-04-21T03:38:24.586Z,2.76
2023-04-21T03:39:26.928Z,2.78
2023-04-21T03:40:29.975Z,2.96
2023-04-21T03:41:36.174Z,3.04
2023-04-21T03:42:39.405Z,3.13
2023-04-21T03:43:41.634Z,3.16
2023-04-21T03:44:43.833Z,3.22
2023-04-21T03:45:46.207Z,3.21
2023-04-21T03:46:48.551Z,3.33
2023-04-21T03:47:55.177Z,3.34
2023-04-21T03:48:57.507Z,3.32
2023-04-21T03:49:59.715Z,3.32
2023-04-21T03:51:01.926Z,3.28
2023-04-21T03:52:04.283Z,3.17
2023-04-21T03:53:06.505Z,3.22
2023-04-21T03:54:08.742Z,3.27
2023-04-21T03:55:11.707Z,3.30
2023-04-21T03:56:13.906Z,3.28
2023-04-21T03:57:16.640Z,3.22
2023-04-21T03:58:19.229Z,3.16
2023-04-21T03:59:21.675Z,3.12
2023-04-21T04:00:24.417Z,3.10
2023-04-21T04:01:26.692Z,3.15
2023-04-21T04:02:29.487Z,3.15
2023-04-21T04:03:31.859Z,3.18
2023-04-21T04:04:34.691Z,3.15
2023-04-21T04:05:37.237Z,3.14
2023-04-21T04:06:39.413Z,3.16
2023-04-21T04:07:41.591Z,3.20
2023-04-21T04:08:43.718Z,3.17
2023-04-21T04:09:45.944Z,3.14
2023-04-21T04:10:48.311Z,3.11
2023-04-21T04:11:50.654Z,3.14
2023-04-21T04:12:52.845Z,3.18
2023-04-21T04:13:55.079Z,3.16
2023-04-21T04:14:57.396Z,3.11
2023-04-21T04:15:59.770Z,3.16
2023-04-21T04:17:01.974Z,3.18
2023-04-21T04:18:04.221Z,3.12
2023-04-21T04:19:06.499Z,2.99
2023-04-21T04:20:09.364Z,2.86
2023-04-21T04:21:11.608Z,2.83
2023-04-21T04:22:13.759Z,2.69
2023-04-21T04:23:16.029Z,2.75
2023-04-21T04:24:19.395Z,2.77
2023-04-21T04:25:21.677Z,2.72
2023-04-21T04:26:25.154Z,2.67
2023-04-21T04:27:28.085Z,2.48
2023-04-21T04:28:30.713Z,2.47
2023-04-21T04:29:32.905Z,2.55
2023-04-21T04:30:35.354Z,2.58
2023-04-21T04:31:37.909Z,2.65
2023-04-21T04:32:40.336Z,2.73
2023-04-21T04:33:42.846Z,2.69
2023-04-21T04:34:45.061Z,2.67
2023-04-21T04:35:48.313Z,2.67
2023-04-21T04:36:51.135Z,2.65
2023-04-21T04:37:54.669Z,2.67
2023-04-21T04:38:58.332Z,2.70
2023-04-21T04:40:00.605Z,2.60
2023-04-21T04:41:03.409Z,2.56
2023-04-21T04:42:11.709Z,2.59
2023-04-21T04:43:15.011Z,2.47
2023-04-21T04:44:18.132Z,2.46
2023-04-21T04:45:22.107Z,2.40
2023-04-21T04:46:24.719Z,2.41
2023-04-21T04:47:27.058Z,2.50
2023-04-21T04:48:29.676Z,2.54
2023-04-21T04:49:31.988Z,2.56
2023-04-21T04:50:34.126Z,2.66
2023-04-21T04:51:36.505Z,2.79
2023-04-21T04:52:39.059Z,2.88
2023-04-21T04:53:41.271Z,2.97
2023-04-21T04:54:43.566Z,3.14
2023-04-21T04:55:47.175Z,3.23
2023-04-21T04:56:49.380Z,3.08
2023-04-21T04:57:51.639Z,3.03
2023-04-21T04:58:53.830Z,3.15
2023-04-21T04:59:56.224Z,3.17
2023-04-21T05:00:58.536Z,3.20
2023-04-21T05:02:00.900Z,3.08
2023-04-21T05:03:03.346Z,2.99
2023-04-21T05:04:05.963Z,2.91
2023-04-21T05:05:08.541Z,2.87
2023-04-21T05:06:10.974Z,2.85
2023-04-21T05:07:13.182Z,2.78
2023-04-21T05:08:17.822Z,2.64
2023-04-21T05:09:20.649Z,2.61
2023-04-21T05:10:23.523Z,2.66
2023-04-21T05:11:25.779Z,2.65
2023-04-21T05:12:28.133Z,2.69
2023-04-21T05:13:30.370Z,2.74
2023-04-21T05:14:32.522Z,2.74
2023-04-21T05:15:34.641Z,2.79
2023-04-21T05:16:37.100Z,2.95
2023-04-21T05:17:39.341Z,2.95
2023-04-21T05:18:41.500Z,3.05
2023-04-21T05:19:43.739Z,3.17
2023-04-21T05:20:45.902Z,3.21
2023-04-21T05:21:48.214Z,3.14
2023-04-21T05:22:50.511Z,3.01
2023-04-21T05:23:53.176Z,3.01
2023-04-21T05:24:55.518Z,3.09
2023-04-21T05:25:57.703Z,3.24
2023-04-21T05:26:59.894Z,3.36
2023-04-21T05:28:02.105Z,3.47
2023-04-21T05:29:04.272Z,3.55
2023-04-21T05:30:07.034Z,3.65
2023-04-21T05:31:09.230Z,3.81
2023-04-21T05:32:12.393Z,3.98
2023-04-21T05:33:14.777Z,4.00
2023-04-21T05:34:17.054Z,4.04
2023-04-21T05:35:19.430Z,4.00
2023-04-21T05:36:21.820Z,3.99
2023-04-21T05:37:23.981Z,4.03
2023-04-21T05:38:27.402Z,4.01
2023-04-21T05:39:29.835Z,4.08
2023-04-21T05:40:32.026Z,3.96
2023-04-21T05:41:34.188Z,4.08
2023-04-21T05:42:36.438Z,4.21
2023-04-21T05:43:38.582Z,4.31
2023-04-21T05:44:40.781Z,4.44
2023-04-21T05:45:42.948Z,4.37
2023-04-21T05:46:45.482Z,4.31
2023-04-21T05:47:47.713Z,4.36
2023-04-21T05:48:50.096Z,4.34
2023-04-21T05:49:54.026Z,4.34
2023-04-21T05:50:56.456Z,4.37
2023-04-21T05:51:58.693Z,4.59
2023-04-21T05:53:01.121Z,4.79
2023-04-21T05:54:03.522Z,4.89
2023-04-21T05:55:06.356Z,5.14
2023-04-21T05:56:09.167Z,5.21
2023-04-21T05:57:11.430Z,5.36
2023-04-21T05:58:13.654Z,5.64
2023-04-21T05:59:16.123Z,5.94
2023-04-21T06:00:18.457Z,6.58
2023-04-21T06:01:20.638Z,7.66
2023-04-21T06:02:22.935Z,7.83
2023-04-21T06:03:25.421Z,7.48
2023-04-21T06:04:28.472Z,7.30
2023-04-21T06:05:31.011Z,7.36
2023-04-21T06:06:33.298Z,7.48
2023-04-21T06:07:37.192Z,8.80
2023-04-21T06:08:39.413Z,8.82
2023-04-21T06:09:41.564Z,8.09
2023-04-21T06:10:43.699Z,7.58
2023-04-21T06:11:45.919Z,7.25
2023-04-21T06:12:48.106Z,6.64
2023-04-21T06:13:50.785Z,6.36
2023-04-21T06:14:57.382Z,6.42
2023-04-21T06:15:59.687Z,6.27
2023-04-21T06:17:01.907Z,6.33
2023-04-21T06:18:04.315Z,6.26
2023-04-21T06:19:06.517Z,7.12
2023-04-21T06:20:09.309Z,7.95
2023-04-21T06:21:11.616Z,7.85
2023-04-21T06:22:13.849Z,7.44
2023-04-21T06:23:16.080Z,7.18
2023-04-21T06:24:24.974Z,7.16
2023-04-21T06:25:27.270Z,7.25
2023-04-21T06:26:30.438Z,9.55
2023-04-21T06:27:32.741Z,11.96
2023-04-21T06:28:36.196Z,10.48
2023-04-21T06:29:38.634Z,8.78
2023-04-21T06:30:40.813Z,8.69
2023-04-21T06:31:43.041Z,8.53
2023-04-21T06:32:46.147Z,8.72
2023-04-21T06:33:48.364Z,9.35
2023-04-21T06:34:50.710Z,8.56
2023-04-21T06:35:53.546Z,8.66
2023-04-21T06:36:55.814Z,7.92
2023-04-21T06:37:57.964Z,7.69
2023-04-21T06:39:00.375Z,8.11
2023-04-21T06:40:02.688Z,7.26
2023-04-21T06:41:06.456Z,7.13
2023-04-21T06:42:08.725Z,6.97
2023-04-21T06:43:17.673Z,6.70
2023-04-21T06:44:20.034Z,6.73
2023-04-21T06:45:22.515Z,6.63
2023-04-21T06:46:24.725Z,6.83
2023-04-21T06:47:27.287Z,7.05
2023-04-21T06:48:30.184Z,7.04
2023-04-21T06:49:34.144Z,6.95
2023-04-21T06:50:36.349Z,6.76
2023-04-21T06:51:38.630Z,6.70
2023-04-21T06:52:40.761Z,6.66
2023-04-21T06:53:42.916Z,6.82
2023-04-21T06:54:45.290Z,6.69
2023-04-21T06:55:48.527Z,6.66
2023-04-21T06:56:51.289Z,6.76
2023-04-21T06:57:53.468Z,6.87
2023-04-21T06:58:56.569Z,7.28
2023-04-21T06:59:58.823Z,7.19
2023-04-21T07:01:01.828Z,7.40
2023-04-21T07:02:04.105Z,7.81
2023-04-21T07:03:06.585Z,7.84
2023-04-21T07:04:08.961Z,7.69
2023-04-21T07:05:11.382Z,8.17
2023-04-21T07:06:13.648Z,8.05
2023-04-21T07:07:15.898Z,8.14
2023-04-21T07:08:18.195Z,8.30
2023-04-21T07:09:20.624Z,8.13
2023-04-21T07:10:23.079Z,7.83
2023-04-21T07:11:25.457Z,8.04
2023-04-21T07:12:27.598Z,8.39
2023-04-21T07:13:30.412Z,8.39
2023-04-21T07:14:32.650Z,8.56
2023-04-21T07:15:34.871Z,8.41
2023-04-21T07:16:37.017Z,8.22
2023-04-21T07:17:39.240Z,8.29
2023-04-21T07:18:41.879Z,8.49
2023-04-21T07:19:44.171Z,8.55
2023-04-21T07:20:46.345Z,8.55
2023-04-21T07:21:48.523Z,9.02
2023-04-21T07:22:50.753Z,9.06
2023-04-21T07:23:52.862Z,9.14
2023-04-21T07:24:55.109Z,9.33
2023-04-21T07:25:57.317Z,9.39
2023-04-21T07:26:59.526Z,9.23
2023-04-21T07:28:03.286Z,9.34
2023-04-21T07:29:06.115Z,9.60
2023-04-21T07:30:10.948Z,8.89
2023-04-21T07:31:13.331Z,9.27
2023-04-21T07:32:15.765Z,9.20
2023-04-21T07:33:18.050Z,9.36
2023-04-21T07:34:20.480Z,9.69
2023-04-21T07:35:22.942Z,9.37
2023-04-21T07:36:26.219Z,9.41
2023-04-21T07:37:28.873Z,8.90
2023-04-21T07:38:31.315Z,8.74
2023-04-21T07:39:36.705Z,8.63
2023-04-21T07:40:39.091Z,8.90
2023-04-21T07:41:41.462Z,9.03
2023-04-21T07:42:43.849Z,9.23
2023-04-21T07:43:46.166Z,9.33
2023-04-21T07:44:48.966Z,9.28
2023-04-21T07:45:52.468Z,9.18
2023-04-21T07:46:55.097Z,8.79
2023-04-21T07:47:57.444Z,9.19
2023-04-21T07:49:02.751Z,9.12
2023-04-21T07:50:06.818Z,9.07
2023-04-21T07:51:09.475Z,9.09
2023-04-21T07:52:11.939Z,9.10
2023-04-21T07:53:15.353Z,9.25
2023-04-21T07:54:18.995Z,9.58
2023-04-21T07:55:21.649Z,9.49
2023-04-21T07:56:24.133Z,9.54
2023-04-21T07:57:26.597Z,9.97
2023-04-21T07:58:28.943Z,9.56
2023-04-21T07:59:31.234Z,9.99
2023-04-21T08:00:33.706Z,10.37
2023-04-21T08:01:35.967Z,10.86
2023-04-21T08:02:38.881Z,11.12
2023-04-21T08:03:41.785Z,10.61
2023-04-21T08:04:44.559Z,10.72
2023-04-21T08:05:47.797Z,10.85
2023-04-21T08:06:50.635Z,10.67
2023-04-21T08:07:53.175Z,10.55
2023-04-21T08:08:56.187Z,11.10
2023-04-21T08:09:58.815Z,10.92
2023-04-21T08:11:01.421Z,11.10
2023-04-21T08:12:04.175Z,10.89
2023-04-21T08:13:06.815Z,10.87
2023-04-21T08:14:11.767Z,10.85
2023-04-21T08:15:14.322Z,10.84
2023-04-21T08:16:16.723Z,10.99
2023-04-21T08:17:19.022Z,10.70
2023-04-21T08:18:22.725Z,10.99
2023-04-21T08:19:25.530Z,11.11
2023-04-21T08:20:28.055Z,11.61
2023-04-21T08:21:32.748Z,11.69
2023-04-21T08:22:36.522Z,11.33
2023-04-21T08:23:39.020Z,11.83
2023-04-21T08:24:41.354Z,11.83
2023-04-21T08:25:43.689Z,11.45
2023-04-21T08:26:46.130Z,11.96
2023-04-21T08:27:48.428Z,12.13
2023-04-21T08:28:52.086Z,12.44
2023-04-21T08:29:54.635Z,12.56
2023-04-21T08:30:57.014Z,12.14
2023-04-21T08:31:59.724Z,12.39
2023-04-21T08:33:02.222Z,12.56
2023-04-21T08:34:04.714Z,12.97
2023-04-21T08:35:07.460Z,12.46
2023-04-21T08:36:21.911Z,12.11
2023-04-21T08:37:31.160Z,12.95
2023-04-21T08:38:33.466Z,13.01
2023-04-21T08:39:36.101Z,12.65
2023-04-21T08:40:39.064Z,12.90
2023-04-21T08:41:42.033Z,13.07
2023-04-21T08:42:45.584Z,13.29
2023-04-21T08:43:47.814Z,13.27
2023-04-21T08:44:50.106Z,12.96
2023-04-21T08:45:54.311Z,13.28
2023-04-21T08:46:59.669Z,13.43
2023-04-21T08:48:04.712Z,12.92
2023-04-21T08:49:09.528Z,12.72
2023-04-21T08:50:13.728Z,12.93
2023-04-21T08:51:22.376Z,12.89
2023-04-21T08:52:24.879Z,12.53
2023-04-21T08:53:27.503Z,12.57
2023-04-21T08:54:30.249Z,13.07
2023-04-21T08:55:33.029Z,13.25
2023-04-21T08:56:35.221Z,13.46
2023-04-21T08:57:37.478Z,13.19
2023-04-21T08:58:39.826Z,13.62
2023-04-21T08:59:42.052Z,13.50
2023-04-21T09:00:44.288Z,13.92
2023-04-21T09:02:16.298Z,14.22
2023-04-21T09:03:26.550Z,14.60
2023-04-21T09:04:30.763Z,14.68
2023-04-21T09:05:34.970Z,14.16
2023-04-21T09:06:46.282Z,13.84
2023-04-21T09:07:48.912Z,13.62
2023-04-21T09:08:57.700Z,12.96
2023-04-21T09:10:00.691Z,13.45
2023-04-21T09:11:03.126Z,13.55
2023-04-21T09:12:05.415Z,14.25
2023-04-21T09:13:08.828Z,14.04
2023-04-21T09:14:11.344Z,13.99
2023-04-21T09:15:13.548Z,13.80
2023-04-21T09:16:18.403Z,14.00
2023-04-21T09:17:27.150Z,13.77
2023-04-21T09:18:35.832Z,13.88
2023-04-21T09:19:38.072Z,14.07
2023-04-21T09:20:41.071Z,13.96
2023-04-21T09:21:44.108Z,14.43
2023-04-21T09:22:49.439Z,14.10
2023-04-21T09:23:53.505Z,14.77
2023-04-21T09:25:00.248Z,15.02
2023-04-21T09:26:03.131Z,13.98
2023-04-21T09:27:05.511Z,13.76
2023-04-21T09:28:13.451Z,14.29
2023-04-21T09:29:15.730Z,14.54
2023-04-21T09:30:20.784Z,14.60
2023-04-21T09:31:24.917Z,14.42
2023-04-21T09:32:27.570Z,15.20
2023-04-21T09:33:42.481Z,14.78
2023-04-21T09:34:48.161Z,14.16
2023-04-21T09:35:50.310Z,14.09
2023-04-21T09:37:04.348Z,13.64
2023-04-21T09:38:11.173Z,14.09
2023-04-21T09:39:34.360Z,14.47
2023-04-21T09:40:35.963Z,15.08
2023-04-21T09:41:38.222Z,14.79
2023-04-21T09:42:43.123Z,14.86
2023-04-21T09:45:39.556Z,15.62
2023-04-21T09:46:44.372Z,14.72
2023-04-21T09:47:54.499Z,14.28
2023-04-21T09:48:59.346Z,14.43
2023-04-21T09:50:02.767Z,14.45
2023-04-21T09:52:44.090Z,15.25
2023-04-21T09:53:49.872Z,14.85
2023-04-21T09:55:00.352Z,14.64
2023-04-21T09:56:03.213Z,15.19
2023-04-21T09:57:10.377Z,14.92
2023-04-21T09:58:15.570Z,14.97
2023-04-21T09:59:24.526Z,15.07
2023-04-21T10:00:31.273Z,15.22
2023-04-21T10:01:35.630Z,14.76
2023-04-21T10:02:47.937Z,14.89
2023-04-21T10:03:51.306Z,15.25
2023-04-21T10:04:54.477Z,14.77
2023-04-21T10:05:56.930Z,14.37
2023-04-21T10:07:02.156Z,14.45
2023-04-21T10:08:06.916Z,15.05
2023-04-21T10:09:10.812Z,15.45
2023-04-21T10:10:35.452Z,14.96
2023-04-21T10:11:38.176Z,14.88
2023-04-21T10:12:40.438Z,15.12
2023-04-21T10:13:42.856Z,15.24
2023-04-21T10:14:45.105Z,15.16
2023-04-21T10:15:47.484Z,14.85
2023-04-21T10:17:04.298Z,14.51
2023-04-21T10:18:21.663Z,15.27
2023-04-21T10:19:25.505Z,15.77
2023-04-21T10:20:29.453Z,16.10
2023-04-21T10:21:36.513Z,15.74
2023-04-21T10:22:39.647Z,15.84
2023-04-21T10:23:43.973Z,16.12
2023-04-21T10:24:47.254Z,15.71
2023-04-21T10:25:49.515Z,15.49
2023-04-21T10:26:54.579Z,15.49
2023-04-21T10:27:57.485Z,15.17
2023-04-21T10:29:00.585Z,14.86
2023-04-21T10:30:23.120Z,14.89
2023-04-21T10:31:31.033Z,14.95
2023-04-21T10:32:43.458Z,15.45
2023-04-21T10:34:04.056Z,15.75
2023-04-21T10:35:09.848Z,16.17
2023-04-21T10:36:12.266Z,16.05
2023-04-21T10:37:17.311Z,15.96
2023-04-21T10:38:34.422Z,16.15
2023-04-21T10:39:45.430Z,15.86
2023-04-21T10:40:47.602Z,15.88
2023-04-21T10:41:51.234Z,15.46
2023-04-21T10:42:53.728Z,15.38
2023-04-21T10:44:13.670Z,15.35
2023-04-21T10:45:16.295Z,15.24
2023-04-21T10:46:40.318Z,15.80
2023-04-21T10:47:48.766Z,16.08
2023-04-21T10:48:53.814Z,16.35
2023-04-21T10:49:57.962Z,15.49
2023-04-21T10:51:00.678Z,15.73
2023-04-21T10:52:04.154Z,15.78
2023-04-21T10:53:13.352Z,15.37
2023-04-21T10:54:15.600Z,15.58
2023-04-21T10:55:17.894Z,15.66
2023-04-21T10:56:21.824Z,15.97
2023-04-21T10:57:24.185Z,15.74
2023-04-21T10:58:26.910Z,16.14
2023-04-21T10:59:29.279Z,16.27
2023-04-21T11:00:32.195Z,16.28
2023-04-21T11:01:34.625Z,15.76
2023-04-21T11:02:39.765Z,15.78
2023-04-21T11:03:44.260Z,16.23
2023-04-21T11:04:51.781Z,16.63
2023-04-21T11:05:54.545Z,16.47
2023-04-21T11:07:13.359Z,16.39
2023-04-21T11:08:16.006Z,15.97
2023-04-21T11:09:18.331Z,16.56
2023-04-21T11:10:20.617Z,16.72
2023-04-21T11:11:24.278Z,17.15
2023-04-21T11:12:35.067Z,16.71
2023-04-21T11:13:37.436Z,16.99
2023-04-21T11:14:42.163Z,17.62
2023-04-21T11:16:05.938Z,17.67
2023-04-21T11:17:12.747Z,17.56
2023-04-21T11:18:15.045Z,17.25
2023-04-21T11:19:17.665Z,17.13
2023-04-21T11:20:19.940Z,16.65
2023-04-21T11:21:24.456Z,17.00
2023-04-21T11:22:26.885Z,16.75
2023-04-21T11:23:29.083Z,16.80
2023-04-21T11:24:32.163Z,16.79
2023-04-21T11:25:34.480Z,17.13
2023-04-21T11:26:39.979Z,16.34
2023-04-21T11:27:42.272Z,16.13
2023-04-21T11:28:47.732Z,16.16
2023-04-21T11:29:51.051Z,16.36
2023-04-21T11:30:53.292Z,16.51
2023-04-21T11:31:56.196Z,16.55
2023-04-21T11:32:58.473Z,16.42
2023-04-21T11:34:01.080Z,16.47
2023-04-21T11:35:03.851Z,16.43
2023-04-21T11:36:07.480Z,16.36
2023-04-21T11:37:14.444Z,16.37
2023-04-21T11:38:18.582Z,16.88
2023-04-21T11:39:22.225Z,17.05
2023-04-21T11:40:24.653Z,16.56
2023-04-21T11:41:26.808Z,16.76
2023-04-21T11:42:28.975Z,16.68
2023-04-21T11:43:31.423Z,16.13
2023-04-21T11:44:36.329Z,15.94
2023-04-21T11:45:40.773Z,16.58
2023-04-21T11:46:46.853Z,16.61
2023-04-21T11:47:49.442Z,16.28
2023-04-21T11:49:06.238Z,16.42
2023-04-21T11:50:09.645Z,16.36
2023-04-21T11:51:21.369Z,16.64
2023-04-21T11:52:25.679Z,16.37
2023-04-21T11:53:29.530Z,16.35
2023-04-21T11:54:31.756Z,16.71
2023-04-21T11:55:34.669Z,16.73
2023-04-21T11:56:47.229Z,16.33
2023-04-21T11:57:51.077Z,16.45
2023-04-21T11:58:53.478Z,16.66
2023-04-21T11:59:59.487Z,16.54
2023-04-21T12:01:08.952Z,16.59
2023-04-21T12:02:20.949Z,16.45
2023-04-21T12:03:23.797Z,16.45
2023-04-21T12:04:26.238Z,16.80
2023-04-21T12:05:36.242Z,16.75
2023-04-21T12:06:38.592Z,16.29
2023-04-21T12:07:45.021Z,16.31
2023-04-21T12:08:47.253Z,16.59
2023-04-21T12:09:53.067Z,16.64
2023-04-21T12:10:55.281Z,16.83
2023-04-21T12:11:58.943Z,16.94
2023-04-21T12:13:01.241Z,16.62
2023-04-21T12:14:03.521Z,16.63
2023-04-21T12:15:09.871Z,16.82
2023-04-21T12:16:12.879Z,16.53
2023-04-21T12:17:15.162Z,16.24
2023-04-21T12:18:17.337Z,16.29
2023-04-21T12:19:49.345Z,16.17
2023-04-21T12:20:52.908Z,16.18
2023-04-21T12:21:58.839Z,16.56
2023-04-21T12:23:01.276Z,16.03
2023-04-21T12:24:04.203Z,16.22
2023-04-21T12:25:06.771Z,16.76
2023-04-21T12:26:09.063Z,17.09
2023-04-21T12:27:11.992Z,17.03
2023-04-21T12:28:17.135Z,16.33
2023-04-21T12:29:19.390Z,16.29
2023-04-21T12:30:21.983Z,16.15
2023-04-21T12:31:24.277Z,16.33
2023-04-21T12:32:26.711Z,16.67
2023-04-21T12:33:29.004Z,16.93
2023-04-21T12:34:31.279Z,16.70
2023-04-21T12:35:33.867Z,16.54
2023-04-21T12:36:36.623Z,16.81
2023-04-21T12:37:39.067Z,16.92
2023-04-21T12:38:41.374Z,16.66
2023-04-21T12:39:43.635Z,16.87
2023-04-21T12:40:45.896Z,17.22
2023-04-21T12:41:48.886Z,17.60
2023-04-21T12:42:51.201Z,17.65
2023-04-21T12:43:53.439Z,16.96
2023-04-21T12:44:55.559Z,16.97
2023-04-21T12:45:57.705Z,16.89
2023-04-21T12:46:59.957Z,17.16
2023-04-21T12:48:03.601Z,16.74
2023-04-21T12:49:07.501Z,16.69
2023-04-21T12:50:11.240Z,16.77
2023-04-21T12:51:13.406Z,16.54
2023-04-21T12:52:15.635Z,17.06
2023-04-21T12:53:17.764Z,17.41
2023-04-21T12:54:20.057Z,17.58
2023-04-21T12:55:22.919Z,17.38
2023-04-21T12:56:25.344Z,17.70
2023-04-21T12:57:28.836Z,18.15
2023-04-21T12:58:31.045Z,17.70
2023-04-21T12:59:33.371Z,17.40
2023-04-21T13:00:36.359Z,17.09
2023-04-21T13:01:40.280Z,17.47
2023-04-21T13:02:42.806Z,17.36
2023-04-21T13:03:45.319Z,17.46
2023-04-21T13:04:47.761Z,16.79
2023-04-21T13:05:49.961Z,16.89
2023-04-21T13:06:52.263Z,17.01
2023-04-21T13:07:55.214Z,16.47
2023-04-21T13:08:57.470Z,16.48
2023-04-21T13:10:00.183Z,16.84
2023-04-21T13:11:03.049Z,17.07
2023-04-21T13:12:05.284Z,17.00
2023-04-21T13:13:07.438Z,17.35
2023-04-21T13:14:09.750Z,17.09
2023-04-21T13:15:12.146Z,16.89
2023-04-21T13:16:14.302Z,16.89
2023-04-21T13:17:16.894Z,17.53
2023-04-21T13:18:19.262Z,17.63
2023-04-21T13:19:21.550Z,17.68
2023-04-21T13:20:23.816Z,17.38
2023-04-21T13:21:26.377Z,17.42
2023-04-21T13:22:28.640Z,17.85
2023-04-21T13:23:30.845Z,17.98
2023-04-21T13:24:33.724Z,17.50
2023-04-21T13:25:35.873Z,17.22
2023-04-21T13:26:38.154Z,17.06
2023-04-21T13:27:40.654Z,17.21
2023-04-21T13:28:42.964Z,17.38
2023-04-21T13:29:45.476Z,17.67
2023-04-21T13:30:48.514Z,17.91
2023-04-21T13:31:50.753Z,17.87
2023-04-21T13:32:53.334Z,17.92
2023-04-21T13:33:56.416Z,18.26
2023-04-21T13:34:58.921Z,17.89
2023-04-21T13:36:03.288Z,18.10
2023-04-21T13:37:06.248Z,18.24
2023-04-21T13:38:08.565Z,18.34
2023-04-21T13:39:11.587Z,18.27
2023-04-21T13:40:13.891Z,18.03
2023-04-21T13:41:16.442Z,18.23
2023-04-21T13:42:19.026Z,18.40
2023-04-21T13:43:21.235Z,18.25
2023-04-21T13:44:23.681Z,18.18
2023-04-21T13:45:26.520Z,18.73
2023-04-21T13:46:28.803Z,19.11
2023-04-21T13:47:33.008Z,19.57
2023-04-21T13:48:35.440Z,19.39
2023-04-21T13:49:38.035Z,19.47
2023-04-21T13:50:40.268Z,19.17
2023-04-21T13:51:42.492Z,18.49
2023-04-21T13:52:44.716Z,18.28
2023-04-21T13:53:46.950Z,18.69
2023-04-21T13:54:49.244Z,18.18
2023-04-21T13:55:52.823Z,18.13
2023-04-21T13:56:55.268Z,17.98
2023-04-21T13:58:00.666Z,18.26
2023-04-21T13:59:02.876Z,18.10